createdAt,value
2023-06-29T00:00:02.247Z,14.73
2023-06-29T00:02:33.384Z,14.60
2023-06-29T00:05:00.976Z,14.48
2023-06-29T00:07:28.864Z,14.41
2023-06-29T00:09:56.419Z,14.37
2023-06-29T00:12:23.878Z,14.33
2023-06-29T00:14:51.392Z,14.28
2023-06-29T00:17:21.075Z,14.24
2023-06-29T00:19:48.806Z,14.22
2023-06-29T00:22:17.529Z,14.20
2023-06-29T00:24:55.990Z,14.19
2023-06-29T00:27:24.002Z,14.18
2023-06-29T00:29:51.697Z,14.16
2023-06-29T00:32:19.511Z,14.16
2023-06-29T00:34:47.585Z,14.18
2023-06-29T00:37:15.123Z,14.18
2023-06-29T00:39:43.054Z,14.16
2023-06-29T00:42:10.878Z,14.15
2023-06-29T00:44:39.353Z,14.10
2023-06-29T00:47:07.117Z,14.06
2023-06-29T00:49:34.692Z,14.05
2023-06-29T00:52:03.808Z,14.05
2023-06-29T00:54:32.146Z,14.05
2023-06-29T00:56:59.915Z,14.04
2023-06-29T00:59:27.454Z,14.04
2023-06-29T01:01:54.963Z,14.03
2023-06-29T01:04:28.720Z,14.05
2023-06-29T01:07:08.367Z,14.08
2023-06-29T01:09:37.342Z,14.14
2023-06-29T01:12:08.778Z,14.17
2023-06-29T01:14:38.539Z,14.17
2023-06-29T01:17:07.991Z,14.21
2023-06-29T01:19:36.008Z,14.20
2023-06-29T01:22:07.209Z,14.19
2023-06-29T01:24:39.372Z,14.16
2023-06-29T01:27:13.524Z,14.14
2023-06-29T01:29:41.647Z,14.15
2023-06-29T01:32:11.568Z,14.19
2023-06-29T01:34:39.934Z,14.20
2023-06-29T01:37:12.590Z,14.26
2023-06-29T01:40:03.321Z,14.29
2023-06-29T01:42:35.436Z,14.36
2023-06-29T01:45:05.266Z,14.32
2023-06-29T01:47:33.522Z,14.28
2023-06-29T01:50:01.385Z,14.22
2023-06-29T01:52:29.256Z,14.12
2023-06-29T01:54:56.834Z,14.04
2023-06-29T01:57:24.414Z,13.99
2023-06-29T01:59:53.876Z,13.96
2023-06-29T02:02:21.459Z,13.90
2023-06-29T02:04:49.174Z,13.85
2023-06-29T02:07:16.736Z,13.83
2023-06-29T02:09:44.591Z,13.83
2023-06-29T02:12:12.909Z,13.79
2023-06-29T02:14:40.896Z,13.77
2023-06-29T02:17:09.350Z,13.73
2023-06-29T02:19:36.885Z,13.72
2023-06-29T02:22:04.911Z,13.73
2023-06-29T02:24:32.620Z,13.74
2023-06-29T02:27:02.407Z,13.77
2023-06-29T02:29:30.176Z,13.78
2023-06-29T02:31:57.748Z,13.79
2023-06-29T02:34:25.313Z,13.78
2023-06-29T02:36:52.957Z,13.77
2023-06-29T02:39:20.794Z,13.75
2023-06-29T02:41:48.490Z,13.73
2023-06-29T02:44:16.405Z,13.73
2023-06-29T02:46:44.038Z,13.72
2023-06-29T02:49:13.299Z,13.77
2023-06-29T02:51:41.159Z,13.82
2023-06-29T02:54:09.364Z,13.82
2023-06-29T02:56:37.189Z,13.79
2023-06-29T02:59:05.451Z,13.77
2023-06-29T03:01:33.292Z,13.78
2023-06-29T03:04:01.005Z,13.76
2023-06-29T03:06:28.805Z,13.74
2023-06-29T03:08:58.591Z,13.76
2023-06-29T03:11:26.110Z,13.78
2023-06-29T03:13:56.800Z,13.80
2023-06-29T03:16:24.478Z,13.86
2023-06-29T03:18:52.178Z,13.91
2023-06-29T03:21:20.861Z,13.97
2023-06-29T03:23:49.528Z,14.02
2023-06-29T03:26:17.172Z,14.06
2023-06-29T03:28:44.802Z,14.12
2023-06-29T03:31:12.777Z,14.16
2023-06-29T03:33:41.267Z,14.19
2023-06-29T03:36:12.225Z,14.24
2023-06-29T03:38:39.794Z,14.28
2023-06-29T03:41:08.087Z,14.33
2023-06-29T03:43:35.675Z,14.38
2023-06-29T03:46:03.261Z,14.43
2023-06-29T03:48:31.150Z,14.46
2023-06-29T03:50:59.068Z,14.51
2023-06-29T03:53:26.585Z,14.53
2023-06-29T03:55:54.207Z,14.55
2023-06-29T03:58:21.867Z,14.59
2023-06-29T04:00:49.398Z,14.64
2023-06-29T04:03:17.374Z,14.68
2023-06-29T04:05:45.472Z,14.73
2023-06-29T04:08:13.178Z,14.77
2023-06-29T04:10:41.249Z,14.83
2023-06-29T04:13:08.855Z,14.90
2023-06-29T04:15:36.377Z,15.00
2023-06-29T04:18:04.179Z,15.10
2023-06-29T04:20:33.783Z,15.18
2023-06-29T04:23:01.356Z,15.24
2023-06-29T04:25:29.082Z,15.30
2023-06-29T04:27:56.830Z,15.35
2023-06-29T04:30:24.407Z,15.39
2023-06-29T04:32:52.354Z,15.44
2023-06-29T04:35:20.013Z,15.50
2023-06-29T04:37:47.614Z,15.52
2023-06-29T04:40:15.693Z,15.56
2023-06-29T04:42:47.216Z,15.64
2023-06-29T04:45:19.207Z,15.75
2023-06-29T04:47:50.575Z,15.87
2023-06-29T04:50:26.033Z,15.93
2023-06-29T04:52:56.832Z,15.95
2023-06-29T04:55:24.514Z,15.98
2023-06-29T04:57:53.085Z,15.99
2023-06-29T05:00:21.181Z,16.03
2023-06-29T05:02:49.314Z,16.12
2023-06-29T05:05:17.189Z,16.19
2023-06-29T05:07:44.710Z,16.21
2023-06-29T05:10:12.429Z,16.20
2023-06-29T05:12:39.973Z,16.23
2023-06-29T05:15:08.204Z,16.26
2023-06-29T05:17:35.843Z,16.31
2023-06-29T05:20:04.727Z,16.39
2023-06-29T05:22:32.976Z,16.45
2023-06-29T05:25:00.564Z,16.53
2023-06-29T05:27:28.264Z,16.61
2023-06-29T05:29:55.761Z,16.66
2023-06-29T05:32:23.253Z,16.71
2023-06-29T05:34:50.778Z,16.73
2023-06-29T05:37:18.651Z,16.81
2023-06-29T05:39:46.216Z,16.95
2023-06-29T05:42:13.918Z,17.06
2023-06-29T05:44:41.447Z,17.13
2023-06-29T05:47:10.208Z,17.21
2023-06-29T05:49:38.032Z,17.28
2023-06-29T05:52:06.237Z,17.33
2023-06-29T05:54:33.928Z,17.38
2023-06-29T05:57:01.996Z,17.40
2023-06-29T05:59:30.887Z,17.45
2023-06-29T06:01:59.122Z,17.48
2023-06-29T06:04:27.041Z,17.55
2023-06-29T06:06:54.692Z,17.61
2023-06-29T06:09:22.307Z,17.70
2023-06-29T06:11:50.029Z,17.78
2023-06-29T06:14:17.606Z,17.86
2023-06-29T06:16:45.498Z,17.93
2023-06-29T06:19:13.144Z,17.99
2023-06-29T06:21:41.522Z,18.04
2023-06-29T06:24:09.299Z,18.09
2023-06-29T06:26:36.807Z,18.13
2023-06-29T06:29:04.391Z,18.15
2023-06-29T06:31:34.313Z,18.17
2023-06-29T06:34:03.601Z,18.18
2023-06-29T06:36:31.828Z,18.25
2023-06-29T06:38:59.984Z,18.29
2023-06-29T06:41:27.866Z,18.30
2023-06-29T06:43:55.381Z,18.25
2023-06-29T06:46:22.896Z,18.19
2023-06-29T06:48:50.606Z,18.17
2023-06-29T06:51:18.200Z,18.23
2023-06-29T06:53:45.748Z,18.29
2023-06-29T06:56:13.701Z,18.37
2023-06-29T06:58:42.985Z,18.43
2023-06-29T07:01:10.573Z,18.49
2023-06-29T07:03:38.250Z,18.59
2023-06-29T07:06:06.272Z,18.68
2023-06-29T07:08:35.382Z,18.76
2023-06-29T07:11:04.111Z,18.87
2023-06-29T07:13:32.455Z,19.03
2023-06-29T07:16:00.081Z,19.11
2023-06-29T07:18:28.258Z,19.18
2023-06-29T07:25:59.366Z,19.52
2023-06-29T07:28:27.136Z,19.66
2023-06-29T07:30:54.918Z,19.76
2023-06-29T07:33:22.614Z,19.84
2023-06-29T07:35:50.185Z,19.86
2023-06-29T07:38:17.723Z,19.93
2023-06-29T07:40:47.868Z,20.00
2023-06-29T07:43:17.382Z,20.07
2023-06-29T07:45:45.217Z,20.14
2023-06-29T07:48:13.168Z,20.28
2023-06-29T07:50:40.836Z,20.39
2023-06-29T07:53:08.973Z,20.46
2023-06-29T07:55:36.567Z,20.53
2023-06-29T08:00:34.774Z,20.64
2023-06-29T08:03:02.315Z,20.71
2023-06-29T08:08:01.335Z,20.84
2023-06-29T08:10:29.106Z,20.92
2023-06-29T08:12:56.811Z,21.00
2023-06-29T08:15:24.371Z,21.10
2023-06-29T08:17:51.909Z,21.18
2023-06-29T08:20:19.518Z,21.24
2023-06-29T08:22:49.444Z,21.31
2023-06-29T08:25:17.190Z,21.39
2023-06-29T08:27:44.796Z,21.48
2023-06-29T08:30:13.216Z,21.61
2023-06-29T08:32:41.040Z,21.75
2023-06-29T08:35:09.194Z,21.90
2023-06-29T08:37:37.166Z,21.94
2023-06-29T08:40:07.071Z,21.97
2023-06-29T08:42:38.212Z,22.09
2023-06-29T08:45:07.477Z,22.26
2023-06-29T08:47:38.358Z,22.42
2023-06-29T08:50:06.913Z,22.59
2023-06-29T08:52:36.656Z,22.67
2023-06-29T08:55:05.142Z,22.81
2023-06-29T08:57:33.570Z,22.91
2023-06-29T09:00:05.044Z,23.00
2023-06-29T09:02:34.434Z,23.06
2023-06-29T09:05:03.689Z,23.01
2023-06-29T09:07:31.558Z,23.00
2023-06-29T09:09:59.133Z,23.05
2023-06-29T09:12:28.463Z,23.20
2023-06-29T09:14:58.027Z,23.34
2023-06-29T09:17:27.711Z,23.38
2023-06-29T09:19:55.814Z,23.33
2023-06-29T09:22:28.695Z,23.20
2023-06-29T09:25:09.796Z,23.22
2023-06-29T09:27:40.853Z,23.39
2023-06-29T09:30:16.214Z,23.43
2023-06-29T09:32:43.833Z,23.31
2023-06-29T09:35:12.207Z,23.16
2023-06-29T09:37:41.495Z,23.02
2023-06-29T09:40:12.447Z,22.99
2023-06-29T09:42:40.439Z,23.18
2023-06-29T09:45:16.375Z,23.43
2023-06-29T09:50:23.882Z,23.72
2023-06-29T09:52:55.055Z,23.73
2023-06-29T09:55:30.928Z,23.74
2023-06-29T09:58:00.807Z,23.86
2023-06-29T10:00:33.694Z,24.02
2023-06-29T10:03:01.602Z,24.13
2023-06-29T10:05:33.040Z,24.16
2023-06-29T10:08:05.588Z,24.16
2023-06-29T10:10:37.168Z,24.18
2023-06-29T10:13:07.217Z,24.39
2023-06-29T10:15:37.024Z,24.63
2023-06-29T10:18:16.523Z,24.72
2023-06-29T10:20:46.138Z,24.75
2023-06-29T10:23:21.605Z,24.60
2023-06-29T10:25:53.603Z,24.03
2023-06-29T10:28:22.854Z,22.30
2023-06-29T10:30:54.168Z,20.96
2023-06-29T10:33:23.625Z,20.07
2023-06-29T10:35:52.780Z,19.57
2023-06-29T10:38:20.417Z,19.33
2023-06-29T10:40:49.569Z,19.13
2023-06-29T10:43:18.825Z,18.97
2023-06-29T10:45:46.290Z,19.07
2023-06-29T10:48:31.239Z,19.16
2023-06-29T10:51:07.414Z,19.29
2023-06-29T10:53:35.478Z,19.41
2023-06-29T10:56:03.198Z,19.55
2023-06-29T10:58:38.722Z,19.75
2023-06-29T11:01:06.471Z,19.95
2023-06-29T11:03:36.081Z,20.06
2023-06-29T11:06:05.025Z,20.12
2023-06-29T11:08:33.254Z,20.21
2023-06-29T11:11:14.377Z,20.30
2023-06-29T11:13:42.332Z,20.37
2023-06-29T11:16:13.571Z,20.44
2023-06-29T11:18:48.866Z,20.54
2023-06-29T11:21:16.406Z,20.67
2023-06-29T11:23:51.679Z,20.77
2023-06-29T11:26:21.536Z,20.87
2023-06-29T11:28:52.629Z,20.94
2023-06-29T11:31:20.715Z,21.03
2023-06-29T11:33:52.600Z,21.14
2023-06-29T11:36:28.572Z,21.29
2023-06-29T11:39:13.919Z,21.48
2023-06-29T11:41:42.052Z,21.67
2023-06-29T11:44:12.327Z,21.74
2023-06-29T11:46:54.266Z,21.87
2023-06-29T11:49:27.736Z,22.08
2023-06-29T11:51:55.453Z,22.37
2023-06-29T11:54:23.558Z,22.66
2023-06-29T11:56:51.209Z,22.98
2023-06-29T11:59:21.461Z,23.26
2023-06-29T12:01:49.697Z,23.60
2023-06-29T12:04:17.767Z,23.90
2023-06-29T12:06:55.637Z,24.05
2023-06-29T12:09:31.354Z,24.26
2023-06-29T12:12:00.660Z,24.45
2023-06-29T12:14:29.732Z,24.65
2023-06-29T12:19:34.793Z,25.05
2023-06-29T12:22:05.286Z,25.39
2023-06-29T12:24:34.385Z,25.91
2023-06-29T12:27:02.153Z,26.67
2023-06-29T12:29:29.640Z,27.42
2023-06-29T12:32:01.109Z,28.00
2023-06-29T12:34:32.255Z,28.13
2023-06-29T12:37:01.031Z,28.59
2023-06-29T12:39:29.401Z,29.29
2023-06-29T12:41:57.059Z,30.03
2023-06-29T12:44:24.554Z,30.53
2023-06-29T12:46:52.063Z,30.94
2023-06-29T12:49:19.744Z,31.18
2023-06-29T12:51:47.225Z,31.36
2023-06-29T12:54:14.710Z,31.98
2023-06-29T12:56:42.317Z,32.45
2023-06-29T12:59:09.843Z,32.83
2023-06-29T13:01:37.356Z,33.60
2023-06-29T13:04:05.716Z,34.12
2023-06-29T13:06:33.465Z,34.46
2023-06-29T13:09:00.993Z,34.93
2023-06-29T13:11:29.039Z,35.45
2023-06-29T13:13:57.753Z,36.10
2023-06-29T13:16:25.432Z,36.43
2023-06-29T13:18:53.086Z,36.92
2023-06-29T13:21:20.732Z,37.27
2023-06-29T13:23:48.436Z,37.40
2023-06-29T13:26:16.049Z,37.53
2023-06-29T13:28:43.548Z,38.22
2023-06-29T13:31:11.167Z,38.57
2023-06-29T13:33:38.884Z,38.76
2023-06-29T13:36:06.525Z,39.01
2023-06-29T13:41:01.624Z,40.00
2023-06-29T13:43:29.209Z,40.22
2023-06-29T13:45:56.799Z,40.29
2023-06-29T13:48:24.647Z,39.78
2023-06-29T13:50:52.966Z,39.91
2023-06-29T13:53:20.698Z,40.12
2023-06-29T13:55:48.307Z,40.32
2023-06-29T13:58:16.003Z,40.40
2023-06-29T14:00:43.604Z,40.16
2023-06-29T14:03:11.138Z,39.77
2023-06-29T14:05:38.780Z,39.84
2023-06-29T14:08:06.324Z,40.12
2023-06-29T14:10:33.854Z,40.08
2023-06-29T14:13:01.459Z,40.19
2023-06-29T14:15:29.006Z,39.87
2023-06-29T14:17:56.673Z,39.96
2023-06-29T14:20:24.401Z,40.37
2023-06-29T14:22:52.043Z,40.23
2023-06-29T14:25:19.781Z,39.48
2023-06-29T14:27:47.294Z,37.83
2023-06-29T14:30:15.189Z,36.36
2023-06-29T14:32:42.863Z,34.96
2023-06-29T14:35:10.445Z,33.54
2023-06-29T14:37:38.110Z,32.66
2023-06-29T14:40:08.355Z,32.72
2023-06-29T14:42:36.040Z,33.16
2023-06-29T14:45:04.651Z,33.30
2023-06-29T14:47:32.208Z,33.75
2023-06-29T14:49:59.866Z,34.52
2023-06-29T14:52:27.540Z,35.41
2023-06-29T14:54:55.094Z,36.13
2023-06-29T14:57:23.587Z,36.61
2023-06-29T14:59:51.213Z,36.78
2023-06-29T15:02:18.861Z,36.98
2023-06-29T15:04:46.442Z,37.43
2023-06-29T15:07:14.135Z,37.37
2023-06-29T15:09:41.696Z,36.29
2023-06-29T15:12:10.034Z,34.81
2023-06-29T15:14:37.878Z,33.43
2023-06-29T15:17:05.591Z,32.46
2023-06-29T15:19:33.129Z,31.76
2023-06-29T15:22:00.629Z,31.16
2023-06-29T15:24:28.308Z,30.50
2023-06-29T15:26:55.799Z,29.90
2023-06-29T15:29:24.363Z,29.38
2023-06-29T15:31:52.316Z,29.03
2023-06-29T15:34:20.000Z,28.73
2023-06-29T15:36:47.526Z,28.44
2023-06-29T15:39:15.063Z,28.16
2023-06-29T15:41:50.920Z,27.92
2023-06-29T15:44:19.408Z,27.66
2023-06-29T15:46:53.601Z,27.51
2023-06-29T15:49:22.499Z,27.53
2023-06-29T15:51:50.668Z,27.52
2023-06-29T15:54:18.631Z,27.46
2023-06-29T15:56:46.340Z,27.38
2023-06-29T15:59:13.886Z,27.29
2023-06-29T16:01:41.520Z,27.12
2023-06-29T16:04:09.399Z,26.95
2023-06-29T16:06:37.171Z,26.85
2023-06-29T16:09:04.763Z,27.49
2023-06-29T16:11:32.604Z,28.13
2023-06-29T16:14:00.159Z,28.69
2023-06-29T16:16:28.973Z,28.53
2023-06-29T16:18:57.478Z,28.13
2023-06-29T16:21:25.039Z,27.74
2023-06-29T16:23:52.575Z,27.36
2023-06-29T16:26:20.169Z,26.91
2023-06-29T16:28:47.679Z,26.48
2023-06-29T16:31:15.423Z,26.19
2023-06-29T16:33:43.099Z,25.90
2023-06-29T16:36:10.587Z,25.64
2023-06-29T16:38:38.185Z,25.41
2023-06-29T16:41:05.717Z,25.24
2023-06-29T16:43:33.364Z,25.07
2023-06-29T16:46:00.879Z,24.93
2023-06-29T16:48:28.702Z,24.83
2023-06-29T16:50:56.231Z,24.69
2023-06-29T16:53:23.954Z,24.64
2023-06-29T16:55:54.027Z,24.57
2023-06-29T16:58:22.729Z,24.50
2023-06-29T17:00:50.226Z,24.46
2023-06-29T17:03:17.840Z,24.44
2023-06-29T17:05:45.680Z,24.44
2023-06-29T17:08:13.608Z,24.43
2023-06-29T17:10:41.090Z,24.42
2023-06-29T17:13:08.595Z,24.40
2023-06-29T17:15:36.112Z,24.38
2023-06-29T17:18:03.801Z,24.36
2023-06-29T17:20:31.603Z,24.35
2023-06-29T17:22:59.152Z,24.35
2023-06-29T17:25:26.687Z,24.36
2023-06-29T17:27:54.186Z,24.34
2023-06-29T17:30:21.703Z,24.31
2023-06-29T17:32:49.483Z,24.28
2023-06-29T17:35:17.215Z,24.25
2023-06-29T17:37:44.739Z,24.21
2023-06-29T17:40:12.488Z,24.18
2023-06-29T17:42:40.014Z,24.16
2023-06-29T17:45:09.654Z,24.14
2023-06-29T17:47:37.201Z,24.09
2023-06-29T17:50:05.438Z,24.04
2023-06-29T17:52:33.246Z,23.98
2023-06-29T17:55:00.749Z,23.91
2023-06-29T17:57:28.318Z,23.84
2023-06-29T17:59:55.802Z,23.80
2023-06-29T18:02:23.736Z,23.77
2023-06-29T18:04:51.441Z,23.75
2023-06-29T18:07:19.085Z,23.70
2023-06-29T18:09:46.754Z,23.64
2023-06-29T18:12:14.268Z,23.58
2023-06-29T18:14:41.821Z,23.52
2023-06-29T18:17:09.545Z,23.48
2023-06-29T18:19:37.129Z,23.43
2023-06-29T18:22:06.946Z,23.40
2023-06-29T18:24:34.444Z,23.36
2023-06-29T18:27:02.098Z,23.30
2023-06-29T18:29:30.191Z,23.23
2023-06-29T18:31:58.409Z,23.16
2023-06-29T18:34:26.502Z,23.05
2023-06-29T18:36:54.108Z,22.94
2023-06-29T18:39:21.625Z,22.79
2023-06-29T18:41:49.190Z,22.63
2023-06-29T18:44:16.763Z,22.42
2023-06-29T18:47:08.620Z,22.28
2023-06-29T18:49:50.612Z,22.09
2023-06-29T18:52:20.465Z,21.96
2023-06-29T18:54:51.487Z,21.83
2023-06-29T18:57:19.161Z,21.71
2023-06-29T18:59:46.736Z,21.61
2023-06-29T19:02:15.357Z,21.49
2023-06-29T19:04:42.897Z,21.35
2023-06-29T19:07:12.356Z,21.21
2023-06-29T19:09:39.938Z,21.08
2023-06-29T19:12:08.097Z,20.93
2023-06-29T19:14:35.807Z,20.80
2023-06-29T19:17:03.537Z,20.70
2023-06-29T19:19:31.270Z,20.59
2023-06-29T19:21:58.746Z,20.48
2023-06-29T19:24:26.529Z,20.38
2023-06-29T19:26:54.084Z,20.29
2023-06-29T19:29:21.640Z,20.23
2023-06-29T19:31:49.241Z,20.13
2023-06-29T19:34:17.117Z,20.04
2023-06-29T19:36:44.653Z,19.97
2023-06-29T19:39:12.191Z,19.91
2023-06-29T19:41:39.900Z,19.88
2023-06-29T19:44:07.910Z,19.82
2023-06-29T19:46:35.457Z,19.77
2023-06-29T19:49:03.043Z,19.71
2023-06-29T19:51:34.913Z,19.65
2023-06-29T19:54:02.620Z,19.57
2023-06-29T19:56:30.323Z,19.50
2023-06-29T19:58:58.019Z,19.43
2023-06-29T20:01:25.820Z,19.35
2023-06-29T20:03:53.368Z,19.28
2023-06-29T20:06:21.049Z,19.22
2023-06-29T20:08:48.608Z,19.17
2023-06-29T20:11:16.134Z,19.13
2023-06-29T20:13:43.881Z,19.09
2023-06-29T20:16:11.580Z,19.05
2023-06-29T20:18:39.171Z,19.01
2023-06-29T20:21:06.718Z,18.98
2023-06-29T20:23:34.224Z,18.96
2023-06-29T20:26:01.717Z,18.93
2023-06-29T20:28:29.227Z,18.90
2023-06-29T20:30:56.835Z,18.86
2023-06-29T20:33:24.404Z,18.82
2023-06-29T20:35:51.963Z,18.79
2023-06-29T20:38:19.632Z,18.74
2023-06-29T20:40:47.320Z,18.68
2023-06-29T20:43:16.000Z,18.65
2023-06-29T20:45:48.250Z,18.62
2023-06-29T20:48:16.134Z,18.63
2023-06-29T20:50:43.701Z,18.66
2023-06-29T20:53:11.399Z,18.67
2023-06-29T20:55:38.906Z,18.71
2023-06-29T20:58:09.144Z,18.72
2023-06-29T21:00:37.544Z,18.74
2023-06-29T21:03:06.787Z,18.79
2023-06-29T21:05:34.570Z,18.85
2023-06-29T21:08:02.258Z,18.90
2023-06-29T21:10:30.737Z,18.93
2023-06-29T21:12:58.617Z,18.97
2023-06-29T21:15:26.538Z,18.99
2023-06-29T21:17:55.423Z,19.01
2023-06-29T21:20:24.204Z,19.00
2023-06-29T21:22:52.083Z,18.97
2023-06-29T21:25:21.362Z,18.94
2023-06-29T21:27:49.108Z,18.91
2023-06-29T21:30:17.223Z,18.88
2023-06-29T21:32:45.078Z,18.86
2023-06-29T21:35:13.854Z,18.80
2023-06-29T21:37:41.789Z,18.76
2023-06-29T21:40:10.281Z,18.73
2023-06-29T21:42:37.895Z,18.70
2023-06-29T21:45:06.170Z,18.66
2023-06-29T21:47:33.884Z,18.63
2023-06-29T21:50:01.627Z,18.61
2023-06-29T21:52:29.761Z,18.61
2023-06-29T21:54:57.355Z,18.62
2023-06-29T21:57:24.863Z,18.64
2023-06-29T21:59:52.396Z,18.67
2023-06-29T22:02:20.185Z,18.69
2023-06-29T22:04:47.845Z,18.69
2023-06-29T22:07:16.963Z,18.69
2023-06-29T22:09:44.673Z,18.68
2023-06-29T22:12:12.759Z,18.67
2023-06-29T22:14:40.810Z,18.63
2023-06-29T22:17:08.465Z,18.59
2023-06-29T22:19:37.884Z,18.53
2023-06-29T22:22:07.546Z,18.48
2023-06-29T22:24:35.064Z,18.40
2023-06-29T22:27:03.389Z,18.34
2023-06-29T22:29:30.893Z,18.29
2023-06-29T22:31:58.408Z,18.24
2023-06-29T22:34:26.211Z,18.20
2023-06-29T22:36:53.705Z,18.17
2023-06-29T22:39:21.186Z,18.15
2023-06-29T22:41:48.853Z,18.14
2023-06-29T22:44:16.476Z,18.08
2023-06-29T22:46:44.197Z,18.01
2023-06-29T22:49:12.061Z,17.94
2023-06-29T22:51:40.058Z,17.89
2023-06-29T22:54:09.859Z,17.83
2023-06-29T22:56:37.439Z,17.77
2023-06-29T22:59:12.828Z,17.70
2023-06-29T23:01:40.384Z,17.66
2023-06-29T23:04:09.217Z,17.62
2023-06-29T23:06:40.774Z,17.58
2023-06-29T23:09:09.855Z,17.57
2023-06-29T23:11:39.211Z,17.59
2023-06-29T23:14:15.239Z,17.59
2023-06-29T23:16:44.450Z,17.61
2023-06-29T23:19:13.115Z,17.60
2023-06-29T23:21:40.607Z,17.59
2023-06-29T23:24:09.945Z,17.58
2023-06-29T23:26:37.743Z,17.53
2023-06-29T23:29:05.249Z,17.47
2023-06-29T23:31:32.905Z,17.38
2023-06-29T23:34:01.635Z,17.28
2023-06-29T23:36:29.171Z,17.19
2023-06-29T23:38:58.183Z,17.15
2023-06-29T23:41:30.169Z,17.10
2023-06-29T23:44:14.226Z,17.05
2023-06-29T23:46:44.643Z,16.96
2023-06-29T23:49:14.257Z,16.88
2023-06-29T23:51:43.148Z,16.76
2023-06-29T23:54:11.461Z,16.63
2023-06-29T23:56:40.006Z,16.50
2023-06-29T23:59:08.446Z,16.37
